»·PEaware :: N1812C KSAC-KRDD

N1812C :: KSAC-KRDD

FLIGHT INFORMATION

Flight Status: Arrived
Operator: Privately registered:
United States
More flights under this callsign
Pilot: David G. (31571)
Aircraft: CIRRUS SR-22
(SR22)
More flights by this aircraft type
Origin: KSAC Sacramento Executive
United States
Destination: KRDD Redding Mun
United States
More flights between these airports :: More routes between these airports
Route: +
File this flight plan on PilotEdge
Remarks:
Altitude:
(Current/Filed)
0ft
Speed:
(Current/Filed)
0kts
Departed: 03-Oct-20 07:14 PM
Arrived: 03-Oct-20 08:03 PM
Distance/Time
Traveled:
126nm/0:49
Distance/Time
To Go:
Arrived

Flight Plot

Page will automatically refresh every two minutes.

Flight plan parsing failed; only flown route is shown


Map Options




Map Legend


Flown Route
Filed Route
Departure Airport
Arrival Airport
Navaid (VOR, NDB)
Fix

Horizontal Profiles

Position Reports

Time Latitude Longitude Heading Altitude Ground
Speed
03-Oct-20 19:10 38.517086 -121.497058 226 24ft 0kts
03-Oct-20 19:11 38.517070 -121.497106 267 24ft 5kts
03-Oct-20 19:12 38.519484 -121.492439 101 27ft 24kts
03-Oct-20 19:13 38.519146 -121.490125 103 27ft 7kts
03-Oct-20 19:14 38.504294 -121.501448 218 292ft 102kts
03-Oct-20 19:15 38.520418 -121.528854 348 1361ft 133kts
03-Oct-20 19:16 38.559487 -121.529842 357 2402ft 147kts
03-Oct-20 19:17 38.599682 -121.533257 351 3419ft 148kts
03-Oct-20 19:18 38.639884 -121.543672 343 4285ft 150kts
03-Oct-20 19:19 38.679653 -121.560188 338 5182ft 149kts
03-Oct-20 19:20 38.720858 -121.573069 344 5908ft 153kts
03-Oct-20 19:20 38.754693 -121.588345 344 6486ft 153kts
03-Oct-20 19:22 38.801686 -121.606077 343 7418ft 149kts
03-Oct-20 19:23 38.841213 -121.621541 342 8221ft 147kts
03-Oct-20 19:23 38.873482 -121.634204 342 8886ft 145kts
03-Oct-20 19:24 38.912640 -121.649581 342 9474ft 156kts
03-Oct-20 19:26 38.964699 -121.670087 342 9499ft 173kts
03-Oct-20 19:26 39.003404 -121.685354 342 9499ft 175kts
03-Oct-20 19:27 39.049993 -121.703757 342 9499ft 175kts
03-Oct-20 19:28 39.096768 -121.722222 342 9499ft 175kts
03-Oct-20 19:29 39.143343 -121.740713 342 9499ft 175kts
03-Oct-20 19:30 39.189979 -121.759201 342 9499ft 175kts
03-Oct-20 19:31 39.236639 -121.777708 342 9498ft 175kts
03-Oct-20 19:32 39.283295 -121.796274 342 9500ft 175kts
03-Oct-20 19:33 39.329906 -121.814848 342 9499ft 175kts
03-Oct-20 19:34 39.376675 -121.833491 342 9499ft 175kts
03-Oct-20 19:35 39.423268 -121.852111 342 9499ft 175kts
03-Oct-20 19:36 39.469889 -121.870742 342 9499ft 175kts
03-Oct-20 19:37 39.516639 -121.889457 342 9499ft 175kts
03-Oct-20 19:38 39.563247 -121.908170 342 9499ft 175kts
03-Oct-20 19:39 39.609857 -121.926899 342 9499ft 175kts
03-Oct-20 19:40 39.656606 -121.945682 341 9499ft 175kts
03-Oct-20 19:41 39.703146 -121.964432 342 9499ft 175kts
03-Oct-20 19:42 39.749747 -121.983212 341 9499ft 175kts
03-Oct-20 19:43 39.796518 -122.002103 341 9499ft 175kts
03-Oct-20 19:44 39.843125 -122.020958 342 9499ft 175kts
03-Oct-20 19:45 39.889713 -122.039839 342 9499ft 175kts
03-Oct-20 19:46 39.936436 -122.058766 341 9499ft 175kts
03-Oct-20 19:47 39.983025 -122.077717 341 9499ft 175kts
03-Oct-20 19:48 40.029655 -122.096675 341 9499ft 175kts
03-Oct-20 19:49 40.075398 -122.115303 341 7977ft 175kts
03-Oct-20 19:50 40.122111 -122.134352 341 5468ft 174kts
03-Oct-20 19:51 40.168489 -122.153350 342 3689ft 177kts
03-Oct-20 19:52 40.214699 -122.172227 342 3502ft 171kts
03-Oct-20 19:53 40.260136 -122.190846 341 3499ft 170kts
03-Oct-20 19:54 40.304715 -122.209119 341 2466ft 169kts
03-Oct-20 19:55 40.349259 -122.227449 341 1536ft 160kts
03-Oct-20 19:56 40.390789 -122.244490 341 1500ft 154kts
03-Oct-20 19:57 40.431698 -122.260950 349 1499ft 154kts
03-Oct-20 19:58 40.474562 -122.259729 359 1500ft 154kts
03-Oct-20 19:59 40.517256 -122.260664 358 1495ft 149kts
03-Oct-20 20:00 40.541633 -122.275987 267 1042ft 108kts
03-Oct-20 20:01 40.524829 -122.294708 182 644ft 83kts
03-Oct-20 20:02 40.514200 -122.295711 273 502ft 0kts

Navigation Log

Ident Type
Flight plan parsing failed, navigation log unavailable